KCLE/CLE METAR and TAF weather

Enter ICAO airport designator
Station Type Date Time Source
KCLE METAR 2021/09/24 02:51 UTC NOAA

KCLE 240251Z 22013KT 10SM BKN029 BKN035 OVC046 13/07 A2988 RMK AO2 SLP134 T01280067 51013 $


Station Type Date Time Source
KCLE Decoded METAR 2021/09/24 02:51 UTC NOAA

CLEVELAND-HOPKINS INTERNATIONAL , OH, United States (KCLE) 41-24N 081-51W 236M
Sep 23, 2021 - 10:51 PM EDT / 2021.09.24 0251 UTC
Wind: from the SW (220 degrees) at 15 MPH (13 KT):0
Visibility: 10 mile(s):0
Sky conditions: overcast
Temperature: 55.0 F (12.8 C)
Dew Point: 44.1 F (6.7 C)
Relative Humidity: 66%
Pressure (altimeter): 29.88 in. Hg (1011 hPa)
Pressure tendency: 0.04 inches (1.3 hPa) higher than three hours ago
ob: KCLE 240251Z 22013KT 10SM BKN029 BKN035 OVC046 13/07 A2988 RMK AO2 SLP134 T01280067 51013
cycle: 3

Station Type Date Time Source
KCLE TAF 2021/09/24 03:58 UTC NOAA

TAF
AMD KCLE 240257Z 2403/2506 22013KT P6SM VCSH BKN029 BKN035 OVC045
FM240700 23011G21KT P6SM VCSH BKN040
FM241400 24011G19KT P6SM SCT120
FM241700 24011G17KT P6SM FEW250
FM250100 21007KT P6SM SKC

Example: see airport list